sensor_id;sensor_type;location;lat;lon;timestamp;temperature;humidity
4356;DHT22;64374;51.482;7.408;2022-11-23T00:02:22;9.30;99.90
4356;DHT22;64374;51.482;7.408;2022-11-23T00:04:50;9.50;99.90
4356;DHT22;64374;51.482;7.408;2022-11-23T00:07:21;9.20;99.90
4356;DHT22;64374;51.482;7.408;2022-11-23T00:09:52;9.30;99.90
4356;DHT22;64374;51.482;7.408;2022-11-23T00:12:24;9.50;99.90
4356;DHT22;64374;51.482;7.408;2022-11-23T00:14:53;9.70;99.90
4356;DHT22;64374;51.482;7.408;2022-11-23T00:17:21;9.90;99.90
4356;DHT22;64374;51.482;7.408;2022-11-23T00:19:49;9.80;99.90
4356;DHT22;64374;51.482;7.408;2022-11-23T00:22:17;9.50;99.90
4356;DHT22;64374;51.482;7.408;2022-11-23T00:24:48;9.60;99.90
4356;DHT22;64374;51.482;7.408;2022-11-23T00:27:16;9.90;99.90
4356;DHT22;64374;51.482;7.408;2022-11-23T00:29:47;9.70;99.90
4356;DHT22;64374;51.482;7.408;2022-11-23T00:32:15;9.80;99.90
4356;DHT22;64374;51.482;7.408;2022-11-23T00:34:46;10.00;99.90
4356;DHT22;64374;51.482;7.408;2022-11-23T00:37:15;10.10;99.90
4356;DHT22;64374;51.482;7.408;2022-11-23T00:39:43;9.90;99.90
4356;DHT22;64374;51.482;7.408;2022-11-23T00:42:18;10.00;99.90
4356;DHT22;64374;51.482;7.408;2022-11-23T00:44:51;10.00;99.90
4356;DHT22;64374;51.482;7.408;2022-11-23T00:47:22;9.70;99.90
4356;DHT22;64374;51.482;7.408;2022-11-23T00:49:51;9.90;99.90
4356;DHT22;64374;51.482;7.408;2022-11-23T00:52:19;9.70;99.90
4356;DHT22;64374;51.482;7.408;2022-11-23T00:54:50;9.60;99.90
4356;DHT22;64374;51.482;7.408;2022-11-23T00:57:19;9.90;99.90
4356;DHT22;64374;51.482;7.408;2022-11-23T00:59:48;10.10;99.90
4356;DHT22;64374;51.482;7.408;2022-11-23T01:02:18;9.70;99.90
4356;DHT22;64374;51.482;7.408;2022-11-23T01:04:47;9.50;99.90
4356;DHT22;64374;51.482;7.408;2022-11-23T01:07:15;9.80;99.90
4356;DHT22;64374;51.482;7.408;2022-11-23T01:09:44;9.80;99.90
4356;DHT22;64374;51.482;7.408;2022-11-23T01:12:12;9.80;99.90
4356;DHT22;64374;51.482;7.408;2022-11-23T01:14:41;9.90;99.90
4356;DHT22;64374;51.482;7.408;2022-11-23T01:17:11;10.00;99.90
4356;DHT22;64374;51.482;7.408;2022-11-23T01:19:49;10.10;99.90
4356;DHT22;64374;51.482;7.408;2022-11-23T01:22:17;10.10;99.90
4356;DHT22;64374;51.482;7.408;2022-11-23T01:24:48;9.90;99.90
4356;DHT22;64374;51.482;7.408;2022-11-23T01:27:17;9.90;99.90
4356;DHT22;64374;51.482;7.408;2022-11-23T01:29:45;9.80;99.90
4356;DHT22;64374;51.482;7.408;2022-11-23T01:32:14;9.90;99.90
4356;DHT22;64374;51.482;7.408;2022-11-23T01:34:46;9.80;99.90
4356;DHT22;64374;51.482;7.408;2022-11-23T01:37:15;9.70;99.90
4356;DHT22;64374;51.482;7.408;2022-11-23T01:39:43;10.00;99.90
4356;DHT22;64374;51.482;7.408;2022-11-23T01:42:14;10.20;99.90
4356;DHT22;64374;51.482;7.408;2022-11-23T01:44:46;10.10;99.90
4356;DHT22;64374;51.482;7.408;2022-11-23T01:47:15;10.20;99.90
4356;DHT22;64374;51.482;7.408;2022-11-23T01:49:52;10.00;99.90
4356;DHT22;64374;51.482;7.408;2022-11-23T01:52:25;10.20;99.90
4356;DHT22;64374;51.482;7.408;2022-11-23T01:54:57;10.00;99.90
4356;DHT22;64374;51.482;7.408;2022-11-23T01:57:36;10.10;99.90
4356;DHT22;64374;51.482;7.408;2022-11-23T02:00:07;10.20;99.90
4356;DHT22;64374;51.482;7.408;2022-11-23T02:02:41;10.30;99.90
4356;DHT22;64374;51.482;7.408;2022-11-23T02:05:26;10.40;99.90
4356;DHT22;64374;51.482;7.408;2022-11-23T02:08:00;10.20;99.90
4356;DHT22;64374;51.482;7.408;2022-11-23T02:10:30;10.20;99.90
4356;DHT22;64374;51.482;7.408;2022-11-23T02:13:02;10.20;99.90
4356;DHT22;64374;51.482;7.408;2022-11-23T02:15:34;10.30;99.90
4356;DHT22;64374;51.482;7.408;2022-11-23T02:18:11;10.40;99.90
4356;DHT22;64374;51.482;7.408;2022-11-23T02:20:42;10.40;99.90
4356;DHT22;64374;51.482;7.408;2022-11-23T02:23:22;10.50;99.90
4356;DHT22;64374;51.482;7.408;2022-11-23T02:25:58;10.60;99.90
4356;DHT22;64374;51.482;7.408;2022-11-23T02:28:38;10.40;99.90
4356;DHT22;64374;51.482;7.408;2022-11-23T02:31:07;10.40;99.90
4356;DHT22;64374;51.482;7.408;2022-11-23T02:33:36;10.60;99.90
4356;DHT22;64374;51.482;7.408;2022-11-23T02:36:30;10.20;99.90
4356;DHT22;64374;51.482;7.408;2022-11-23T02:39:08;10.00;99.90
4356;DHT22;64374;51.482;7.408;2022-11-23T02:41:41;10.10;99.90
4356;DHT22;64374;51.482;7.408;2022-11-23T02:44:20;10.10;99.90
4356;DHT22;64374;51.482;7.408;2022-11-23T02:46:55;10.20;99.90
4356;DHT22;64374;51.482;7.408;2022-11-23T02:49:25;10.20;99.90
4356;DHT22;64374;51.482;7.408;2022-11-23T02:51:53;10.00;99.90
4356;DHT22;64374;51.482;7.408;2022-11-23T02:54:25;10.00;99.90
4356;DHT22;64374;51.482;7.408;2022-11-23T02:56:55;9.80;99.90
4356;DHT22;64374;51.482;7.408;2022-11-23T02:59:23;10.20;99.90
4356;DHT22;64374;51.482;7.408;2022-11-23T03:01:52;10.20;99.90
4356;DHT22;64374;51.482;7.408;2022-11-23T03:04:21;10.30;99.90
4356;DHT22;64374;51.482;7.408;2022-11-23T03:06:57;10.50;99.90
4356;DHT22;64374;51.482;7.408;2022-11-23T03:09:26;10.50;99.90
4356;DHT22;64374;51.482;7.408;2022-11-23T03:11:57;10.30;99.90
4356;DHT22;64374;51.482;7.408;2022-11-23T03:14:30;10.50;99.90
4356;DHT22;64374;51.482;7.408;2022-11-23T03:16:59;10.30;99.90
4356;DHT22;64374;51.482;7.408;2022-11-23T03:19:32;10.10;99.90
4356;DHT22;64374;51.482;7.408;2022-11-23T03:22:02;10.20;99.90
4356;DHT22;64374;51.482;7.408;2022-11-23T03:24:34;10.40;99.90
4356;DHT22;64374;51.482;7.408;2022-11-23T03:27:05;10.60;99.90
4356;DHT22;64374;51.482;7.408;2022-11-23T03:29:36;10.40;99.90
4356;DHT22;64374;51.482;7.408;2022-11-23T03:32:10;10.50;99.90
4356;DHT22;64374;51.482;7.408;2022-11-23T03:34:47;10.40;99.90
4356;DHT22;64374;51.482;7.408;2022-11-23T03:37:19;10.30;99.90
4356;DHT22;64374;51.482;7.408;2022-11-23T03:39:51;10.20;99.90
4356;DHT22;64374;51.482;7.408;2022-11-23T03:42:40;10.20;99.90
4356;DHT22;64374;51.482;7.408;2022-11-23T03:45:09;10.10;99.90
4356;DHT22;64374;51.482;7.408;2022-11-23T03:47:37;10.10;99.90
4356;DHT22;64374;51.482;7.408;2022-11-23T03:50:06;9.80;99.90
4356;DHT22;64374;51.482;7.408;2022-11-23T03:52:36;9.80;99.90
4356;DHT22;64374;51.482;7.408;2022-11-23T03:55:06;9.90;99.90
4356;DHT22;64374;51.482;7.408;2022-11-23T03:57:36;10.10;99.90
4356;DHT22;64374;51.482;7.408;2022-11-23T04:00:07;9.90;99.90
4356;DHT22;64374;51.482;7.408;2022-11-23T04:02:40;9.70;99.90
4356;DHT22;64374;51.482;7.408;2022-11-23T04:05:28;10.20;99.90
4356;DHT22;64374;51.482;7.408;2022-11-23T04:08:21;10.10;99.90
4356;DHT22;64374;51.482;7.408;2022-11-23T04:10:55;10.00;99.90
4356;DHT22;64374;51.482;7.408;2022-11-23T04:13:34;9.80;99.90
4356;DHT22;64374;51.482;7.408;2022-11-23T04:16:19;9.80;99.90
4356;DHT22;64374;51.482;7.408;2022-11-23T04:18:49;9.90;99.90
4356;DHT22;64374;51.482;7.408;2022-11-23T04:21:25;9.80;99.90
4356;DHT22;64374;51.482;7.408;2022-11-23T04:24:02;9.80;99.90
4356;DHT22;64374;51.482;7.408;2022-11-23T04:26:32;9.70;99.90
4356;DHT22;64374;51.482;7.408;2022-11-23T04:29:04;9.90;99.90
4356;DHT22;64374;51.482;7.408;2022-11-23T04:31:35;10.20;99.90
4356;DHT22;64374;51.482;7.408;2022-11-23T04:34:17;10.20;99.90
4356;DHT22;64374;51.482;7.408;2022-11-23T04:36:48;10.10;99.90
4356;DHT22;64374;51.482;7.408;2022-11-23T04:39:19;9.90;99.90
4356;DHT22;64374;51.482;7.408;2022-11-23T04:42:10;9.90;99.90
4356;DHT22;64374;51.482;7.408;2022-11-23T04:44:46;9.90;99.90
4356;DHT22;64374;51.482;7.408;2022-11-23T04:47:17;9.70;99.90
4356;DHT22;64374;51.482;7.408;2022-11-23T04:49:50;9.60;99.90
4356;DHT22;64374;51.482;7.408;2022-11-23T04:52:19;9.40;99.90
4356;DHT22;64374;51.482;7.408;2022-11-23T04:55:06;9.60;99.90
4356;DHT22;64374;51.482;7.408;2022-11-23T04:57:45;9.80;99.90
4356;DHT22;64374;51.482;7.408;2022-11-23T05:00:16;9.80;99.90
4356;DHT22;64374;51.482;7.408;2022-11-23T05:02:47;9.40;99.90
4356;DHT22;64374;51.482;7.408;2022-11-23T05:05:22;9.30;99.90
4356;DHT22;64374;51.482;7.408;2022-11-23T05:07:59;9.40;99.90
4356;DHT22;64374;51.482;7.408;2022-11-23T05:10:42;9.50;99.90
4356;DHT22;64374;51.482;7.408;2022-11-23T05:13:12;9.70;99.90
4356;DHT22;64374;51.482;7.408;2022-11-23T05:15:42;9.80;99.90
4356;DHT22;64374;51.482;7.408;2022-11-23T05:18:19;9.70;99.90
4356;DHT22;64374;51.482;7.408;2022-11-23T05:20:54;9.90;99.90
4356;DHT22;64374;51.482;7.408;2022-11-23T05:23:25;10.00;99.90
4356;DHT22;64374;51.482;7.408;2022-11-23T05:25:54;10.00;99.90
4356;DHT22;64374;51.482;7.408;2022-11-23T05:28:23;9.70;99.90
4356;DHT22;64374;51.482;7.408;2022-11-23T05:31:14;9.80;99.90
4356;DHT22;64374;51.482;7.408;2022-11-23T05:33:46;10.00;99.90
4356;DHT22;64374;51.482;7.408;2022-11-23T05:36:20;9.90;99.90
4356;DHT22;64374;51.482;7.408;2022-11-23T05:38:52;9.80;99.90
4356;DHT22;64374;51.482;7.408;2022-11-23T05:41:28;10.10;99.90
4356;DHT22;64374;51.482;7.408;2022-11-23T05:43:59;10.10;99.90
4356;DHT22;64374;51.482;7.408;2022-11-23T05:46:29;9.80;99.90
4356;DHT22;64374;51.482;7.408;2022-11-23T05:49:01;10.00;99.90
4356;DHT22;64374;51.482;7.408;2022-11-23T05:51:34;9.80;99.90
4356;DHT22;64374;51.482;7.408;2022-11-23T05:54:03;9.80;99.90
4356;DHT22;64374;51.482;7.408;2022-11-23T05:56:39;9.90;99.90
4356;DHT22;64374;51.482;7.408;2022-11-23T05:59:13;9.90;99.90
4356;DHT22;64374;51.482;7.408;2022-11-23T06:01:45;9.80;99.90
4356;DHT22;64374;51.482;7.408;2022-11-23T06:04:23;9.90;99.90
4356;DHT22;64374;51.482;7.408;2022-11-23T06:06:57;10.10;99.90
4356;DHT22;64374;51.482;7.408;2022-11-23T06:09:41;10.00;99.90
4356;DHT22;64374;51.482;7.408;2022-11-23T06:12:12;9.90;99.90
4356;DHT22;64374;51.482;7.408;2022-11-23T06:14:43;9.90;99.90
4356;DHT22;64374;51.482;7.408;2022-11-23T06:17:15;9.80;99.90
4356;DHT22;64374;51.482;7.408;2022-11-23T06:19:50;9.60;99.90
4356;DHT22;64374;51.482;7.408;2022-11-23T06:22:19;9.70;99.90
4356;DHT22;64374;51.482;7.408;2022-11-23T06:24:58;9.70;99.90
4356;DHT22;64374;51.482;7.408;2022-11-23T06:27:38;9.80;99.90
4356;DHT22;64374;51.482;7.408;2022-11-23T06:30:28;9.40;99.90
4356;DHT22;64374;51.482;7.408;2022-11-23T06:33:03;9.40;99.90
4356;DHT22;64374;51.482;7.408;2022-11-23T06:35:40;9.70;99.90
4356;DHT22;64374;51.482;7.408;2022-11-23T06:38:09;9.40;99.90
4356;DHT22;64374;51.482;7.408;2022-11-23T06:40:38;9.60;99.90
4356;DHT22;64374;51.482;7.408;2022-11-23T06:43:06;9.70;99.90
4356;DHT22;64374;51.482;7.408;2022-11-23T06:45:41;9.80;99.90
4356;DHT22;64374;51.482;7.408;2022-11-23T06:48:13;9.60;99.90
4356;DHT22;64374;51.482;7.408;2022-11-23T06:50:47;9.50;99.90
4356;DHT22;64374;51.482;7.408;2022-11-23T06:53:17;9.60;99.90
4356;DHT22;64374;51.482;7.408;2022-11-23T06:55:51;9.80;99.90
4356;DHT22;64374;51.482;7.408;2022-11-23T06:58:20;9.80;99.90
4356;DHT22;64374;51.482;7.408;2022-11-23T07:00:49;9.90;99.90
4356;DHT22;64374;51.482;7.408;2022-11-23T07:03:19;9.80;99.90
4356;DHT22;64374;51.482;7.408;2022-11-23T07:06:03;9.70;99.90
4356;DHT22;64374;51.482;7.408;2022-11-23T07:08:35;9.40;99.90
4356;DHT22;64374;51.482;7.408;2022-11-23T07:11:19;9.60;99.90
4356;DHT22;64374;51.482;7.408;2022-11-23T07:13:56;9.70;99.90
4356;DHT22;64374;51.482;7.408;2022-11-23T07:16:26;9.80;99.90
4356;DHT22;64374;51.482;7.408;2022-11-23T07:19:09;9.60;99.90
4356;DHT22;64374;51.482;7.408;2022-11-23T07:21:38;9.80;99.90
4356;DHT22;64374;51.482;7.408;2022-11-23T07:24:07;9.70;99.90
4356;DHT22;64374;51.482;7.408;2022-11-23T07:26:38;9.70;99.90
4356;DHT22;64374;51.482;7.408;2022-11-23T07:29:06;10.10;99.90
4356;DHT22;64374;51.482;7.408;2022-11-23T07:31:34;10.30;99.90
4356;DHT22;64374;51.482;7.408;2022-11-23T07:34:03;10.40;99.90
4356;DHT22;64374;51.482;7.408;2022-11-23T07:36:32;10.20;99.90
4356;DHT22;64374;51.482;7.408;2022-11-23T07:39:04;9.50;99.90
4356;DHT22;64374;51.482;7.408;2022-11-23T07:41:34;9.60;99.90
4356;DHT22;64374;51.482;7.408;2022-11-23T07:44:08;9.80;99.90
4356;DHT22;64374;51.482;7.408;2022-11-23T07:46:36;10.10;99.90
4356;DHT22;64374;51.482;7.408;2022-11-23T07:49:05;9.90;99.90
4356;DHT22;64374;51.482;7.408;2022-11-23T07:51:33;10.00;99.90
4356;DHT22;64374;51.482;7.408;2022-11-23T07:54:01;10.10;99.90
4356;DHT22;64374;51.482;7.408;2022-11-23T07:56:33;9.90;99.90
4356;DHT22;64374;51.482;7.408;2022-11-23T07:59:02;9.90;99.90
4356;DHT22;64374;51.482;7.408;2022-11-23T08:01:32;9.80;99.90
4356;DHT22;64374;51.482;7.408;2022-11-23T08:04:03;9.80;99.90
4356;DHT22;64374;51.482;7.408;2022-11-23T08:06:34;9.90;99.90
4356;DHT22;64374;51.482;7.408;2022-11-23T08:09:02;10.00;99.90
4356;DHT22;64374;51.482;7.408;2022-11-23T08:11:37;10.00;99.90
4356;DHT22;64374;51.482;7.408;2022-11-23T08:14:05;10.30;99.90
4356;DHT22;64374;51.482;7.408;2022-11-23T08:16:34;10.50;99.90
4356;DHT22;64374;51.482;7.408;2022-11-23T08:19:04;10.40;99.90
4356;DHT22;64374;51.482;7.408;2022-11-23T08:21:32;10.10;99.90
4356;DHT22;64374;51.482;7.408;2022-11-23T08:24:00;10.30;99.90
4356;DHT22;64374;51.482;7.408;2022-11-23T08:26:29;10.00;99.90
4356;DHT22;64374;51.482;7.408;2022-11-23T08:29:01;9.90;99.90
4356;DHT22;64374;51.482;7.408;2022-11-23T08:31:29;10.00;99.90
4356;DHT22;64374;51.482;7.408;2022-11-23T08:33:58;9.70;99.90
4356;DHT22;64374;51.482;7.408;2022-11-23T08:36:30;9.80;99.90
4356;DHT22;64374;51.482;7.408;2022-11-23T08:38:58;10.00;99.90
4356;DHT22;64374;51.482;7.408;2022-11-23T08:41:27;10.10;99.90
4356;DHT22;64374;51.482;7.408;2022-11-23T08:43:55;10.00;99.90
4356;DHT22;64374;51.482;7.408;2022-11-23T08:46:25;10.30;99.90
4356;DHT22;64374;51.482;7.408;2022-11-23T08:48:56;10.50;99.90
4356;DHT22;64374;51.482;7.408;2022-11-23T08:51:25;10.20;99.90
4356;DHT22;64374;51.482;7.408;2022-11-23T08:53:53;10.30;99.90
4356;DHT22;64374;51.482;7.408;2022-11-23T08:56:29;10.20;99.90
4356;DHT22;64374;51.482;7.408;2022-11-23T08:58:57;10.30;99.90
4356;DHT22;64374;51.482;7.408;2022-11-23T09:01:26;10.30;99.90
4356;DHT22;64374;51.482;7.408;2022-11-23T09:03:55;10.30;99.90
4356;DHT22;64374;51.482;7.408;2022-11-23T09:06:23;10.40;99.90
4356;DHT22;64374;51.482;7.408;2022-11-23T09:08:56;10.60;99.90
4356;DHT22;64374;51.482;7.408;2022-11-23T09:11:26;10.50;99.90
4356;DHT22;64374;51.482;7.408;2022-11-23T09:13:55;10.20;99.90
4356;DHT22;64374;51.482;7.408;2022-11-23T09:16:25;10.30;99.90
4356;DHT22;64374;51.482;7.408;2022-11-23T09:19:00;10.30;99.90
4356;DHT22;64374;51.482;7.408;2022-11-23T09:21:30;10.40;99.90
4356;DHT22;64374;51.482;7.408;2022-11-23T09:24:01;10.60;99.90
4356;DHT22;64374;51.482;7.408;2022-11-23T09:26:29;10.70;99.90
4356;DHT22;64374;51.482;7.408;2022-11-23T09:28:59;10.80;99.90
4356;DHT22;64374;51.482;7.408;2022-11-23T09:31:31;10.60;99.90
4356;DHT22;64374;51.482;7.408;2022-11-23T09:34:04;10.60;99.90
4356;DHT22;64374;51.482;7.408;2022-11-23T09:36:33;10.60;99.90
4356;DHT22;64374;51.482;7.408;2022-11-23T09:39:01;10.80;99.90
4356;DHT22;64374;51.482;7.408;2022-11-23T09:44:42;10.70;99.90
4356;DHT22;64374;51.482;7.408;2022-11-23T09:47:37;10.60;99.90
4356;DHT22;64374;51.482;7.408;2022-11-23T09:50:16;10.60;99.90
4356;DHT22;64374;51.482;7.408;2022-11-23T09:52:47;10.50;99.90
4356;DHT22;64374;51.482;7.408;2022-11-23T09:55:20;10.70;99.90
4356;DHT22;64374;51.482;7.408;2022-11-23T09:57:55;10.90;99.90
4356;DHT22;64374;51.482;7.408;2022-11-23T10:00:34;10.90;99.90
4356;DHT22;64374;51.482;7.408;2022-11-23T10:03:15;10.60;99.90
4356;DHT22;64374;51.482;7.408;2022-11-23T10:05:52;10.80;99.90
4356;DHT22;64374;51.482;7.408;2022-11-23T10:08:29;10.70;99.90
4356;DHT22;64374;51.482;7.408;2022-11-23T10:11:19;10.70;99.90
4356;DHT22;64374;51.482;7.408;2022-11-23T10:14:05;10.70;99.90
4356;DHT22;64374;51.482;7.408;2022-11-23T10:16:42;10.60;99.90
4356;DHT22;64374;51.482;7.408;2022-11-23T10:19:22;10.60;99.90
4356;DHT22;64374;51.482;7.408;2022-11-23T10:21:58;10.80;99.90
4356;DHT22;64374;51.482;7.408;2022-11-23T10:24:32;11.00;99.90
4356;DHT22;64374;51.482;7.408;2022-11-23T10:27:05;10.50;99.90
4356;DHT22;64374;51.482;7.408;2022-11-23T10:29:36;10.90;99.90
4356;DHT22;64374;51.482;7.408;2022-11-23T10:32:15;11.20;99.90
4356;DHT22;64374;51.482;7.408;2022-11-23T10:34:57;11.50;99.90
4356;DHT22;64374;51.482;7.408;2022-11-23T10:37:26;11.00;99.90
4356;DHT22;64374;51.482;7.408;2022-11-23T10:39:54;11.00;99.90
4356;DHT22;64374;51.482;7.408;2022-11-23T10:42:29;10.90;99.90
4356;DHT22;64374;51.482;7.408;2022-11-23T10:44:58;10.90;99.90
4356;DHT22;64374;51.482;7.408;2022-11-23T10:47:39;11.10;99.90
4356;DHT22;64374;51.482;7.408;2022-11-23T10:50:26;10.80;99.90
4356;DHT22;64374;51.482;7.408;2022-11-23T10:53:18;10.80;99.90
4356;DHT22;64374;51.482;7.408;2022-11-23T10:55:50;10.80;99.90
4356;DHT22;64374;51.482;7.408;2022-11-23T10:58:25;10.70;99.90
4356;DHT22;64374;51.482;7.408;2022-11-23T11:00:58;11.00;99.90
4356;DHT22;64374;51.482;7.408;2022-11-23T11:03:31;11.40;99.90
4356;DHT22;64374;51.482;7.408;2022-11-23T11:06:02;12.50;99.90
4356;DHT22;64374;51.482;7.408;2022-11-23T11:08:47;13.80;99.90
4356;DHT22;64374;51.482;7.408;2022-11-23T11:11:22;15.00;99.90
4356;DHT22;64374;51.482;7.408;2022-11-23T11:14:00;15.20;99.90
4356;DHT22;64374;51.482;7.408;2022-11-23T11:16:32;15.70;99.90
4356;DHT22;64374;51.482;7.408;2022-11-23T11:19:21;14.70;99.90
4356;DHT22;64374;51.482;7.408;2022-11-23T11:21:50;14.00;99.90
4356;DHT22;64374;51.482;7.408;2022-11-23T11:24:20;13.80;99.90
4356;DHT22;64374;51.482;7.408;2022-11-23T11:26:53;13.70;99.90
4356;DHT22;64374;51.482;7.408;2022-11-23T11:29:37;13.80;99.90
4356;DHT22;64374;51.482;7.408;2022-11-23T11:32:10;15.20;99.90
4356;DHT22;64374;51.482;7.408;2022-11-23T11:34:46;16.00;99.90
4356;DHT22;64374;51.482;7.408;2022-11-23T11:37:25;16.10;99.90
4356;DHT22;64374;51.482;7.408;2022-11-23T11:40:02;15.80;99.90
4356;DHT22;64374;51.482;7.408;2022-11-23T11:42:40;14.60;99.90
4356;DHT22;64374;51.482;7.408;2022-11-23T11:45:15;14.30;99.90
4356;DHT22;64374;51.482;7.408;2022-11-23T11:47:50;14.60;99.90
4356;DHT22;64374;51.482;7.408;2022-11-23T11:50:23;14.80;99.90
4356;DHT22;64374;51.482;7.408;2022-11-23T11:53:03;14.50;99.90
4356;DHT22;64374;51.482;7.408;2022-11-23T11:55:46;14.40;99.90
4356;DHT22;64374;51.482;7.408;2022-11-23T11:58:17;13.80;99.90
4356;DHT22;64374;51.482;7.408;2022-11-23T12:00:48;13.50;99.90
4356;DHT22;64374;51.482;7.408;2022-11-23T12:03:26;13.60;99.90
4356;DHT22;64374;51.482;7.408;2022-11-23T12:06:04;13.90;99.90
4356;DHT22;64374;51.482;7.408;2022-11-23T12:08:42;13.50;99.90
4356;DHT22;64374;51.482;7.408;2022-11-23T12:11:13;13.20;99.90
4356;DHT22;64374;51.482;7.408;2022-11-23T12:13:42;13.60;99.90
4356;DHT22;64374;51.482;7.408;2022-11-23T12:16:19;14.00;99.90
4356;DHT22;64374;51.482;7.408;2022-11-23T12:19:00;14.30;99.90
4356;DHT22;64374;51.482;7.408;2022-11-23T12:21:55;15.40;99.90
4356;DHT22;64374;51.482;7.408;2022-11-23T12:24:36;16.00;99.90
4356;DHT22;64374;51.482;7.408;2022-11-23T12:27:17;16.90;99.90
4356;DHT22;64374;51.482;7.408;2022-11-23T12:30:00;17.90;99.90
4356;DHT22;64374;51.482;7.408;2022-11-23T12:32:44;19.50;99.90
4356;DHT22;64374;51.482;7.408;2022-11-23T12:35:35;19.30;99.90
4356;DHT22;64374;51.482;7.408;2022-11-23T12:38:16;20.20;99.90
4356;DHT22;64374;51.482;7.408;2022-11-23T12:40:59;20.50;99.90
4356;DHT22;64374;51.482;7.408;2022-11-23T12:43:41;20.30;98.30
4356;DHT22;64374;51.482;7.408;2022-11-23T12:46:18;18.90;99.50
4356;DHT22;64374;51.482;7.408;2022-11-23T12:49:09;18.20;99.90
4356;DHT22;64374;51.482;7.408;2022-11-23T12:51:44;17.20;99.90
4356;DHT22;64374;51.482;7.408;2022-11-23T12:54:42;16.90;99.90
4356;DHT22;64374;51.482;7.408;2022-11-23T12:57:19;17.30;99.90
4356;DHT22;64374;51.482;7.408;2022-11-23T12:59:53;17.90;99.90
4356;DHT22;64374;51.482;7.408;2022-11-23T13:02:43;18.00;99.90
4356;DHT22;64374;51.482;7.408;2022-11-23T13:05:48;18.60;99.90
4356;DHT22;64374;51.482;7.408;2022-11-23T13:12:13;19.00;99.90
4356;DHT22;64374;51.482;7.408;2022-11-23T13:14:57;19.20;99.90
4356;DHT22;64374;51.482;7.408;2022-11-23T13:17:33;19.30;99.50
4356;DHT22;64374;51.482;7.408;2022-11-23T13:23:10;19.70;99.40
4356;DHT22;64374;51.482;7.408;2022-11-23T13:25:38;19.50;98.10
4356;DHT22;64374;51.482;7.408;2022-11-23T13:28:28;18.50;97.60
4356;DHT22;64374;51.482;7.408;2022-11-23T13:31:20;18.10;99.70
4356;DHT22;64374;51.482;7.408;2022-11-23T13:33:51;16.70;99.70
4356;DHT22;64374;51.482;7.408;2022-11-23T13:36:40;15.50;99.90
4356;DHT22;64374;51.482;7.408;2022-11-23T13:42:42;15.40;99.90
4356;DHT22;64374;51.482;7.408;2022-11-23T13:45:23;15.40;99.90
4356;DHT22;64374;51.482;7.408;2022-11-23T13:48:16;14.60;99.90
4356;DHT22;64374;51.482;7.408;2022-11-23T13:51:07;14.00;99.90
4356;DHT22;64374;51.482;7.408;2022-11-23T13:53:38;14.20;99.90
4356;DHT22;64374;51.482;7.408;2022-11-23T13:56:22;14.00;99.90
4356;DHT22;64374;51.482;7.408;2022-11-23T13:58:54;13.80;99.90
4356;DHT22;64374;51.482;7.408;2022-11-23T14:04:33;13.70;99.90
4356;DHT22;64374;51.482;7.408;2022-11-23T14:07:10;14.00;99.90
4356;DHT22;64374;51.482;7.408;2022-11-23T14:09:56;13.60;99.90
4356;DHT22;64374;51.482;7.408;2022-11-23T14:12:40;13.30;99.90
4356;DHT22;64374;51.482;7.408;2022-11-23T14:15:14;13.30;99.90
4356;DHT22;64374;51.482;7.408;2022-11-23T14:18:00;13.10;99.90
4356;DHT22;64374;51.482;7.408;2022-11-23T14:20:56;13.10;99.90
4356;DHT22;64374;51.482;7.408;2022-11-23T14:23:57;13.00;99.90
4356;DHT22;64374;51.482;7.408;2022-11-23T14:26:40;13.10;99.90
4356;DHT22;64374;51.482;7.408;2022-11-23T14:29:32;13.10;99.90
4356;DHT22;64374;51.482;7.408;2022-11-23T14:32:20;13.20;99.90
4356;DHT22;64374;51.482;7.408;2022-11-23T14:35:05;13.10;99.90
4356;DHT22;64374;51.482;7.408;2022-11-23T14:37:54;12.70;99.90
4356;DHT22;64374;51.482;7.408;2022-11-23T14:40:28;12.80;99.90
4356;DHT22;64374;51.482;7.408;2022-11-23T14:42:59;12.40;99.90
4356;DHT22;64374;51.482;7.408;2022-11-23T14:45:30;12.50;99.90
4356;DHT22;64374;51.482;7.408;2022-11-23T14:48:21;12.60;99.90
4356;DHT22;64374;51.482;7.408;2022-11-23T14:50:56;12.80;99.90
4356;DHT22;64374;51.482;7.408;2022-11-23T14:53:28;12.90;99.90
4356;DHT22;64374;51.482;7.408;2022-11-23T14:55:58;13.20;99.90
4356;DHT22;64374;51.482;7.408;2022-11-23T14:58:30;12.40;99.90
4356;DHT22;64374;51.482;7.408;2022-11-23T15:01:00;12.50;99.90
4356;DHT22;64374;51.482;7.408;2022-11-23T15:03:39;12.70;99.90
4356;DHT22;64374;51.482;7.408;2022-11-23T15:06:17;12.60;99.90
4356;DHT22;64374;51.482;7.408;2022-11-23T15:08:53;12.80;99.90
4356;DHT22;64374;51.482;7.408;2022-11-23T15:11:26;13.00;99.90
4356;DHT22;64374;51.482;7.408;2022-11-23T15:13:59;13.00;99.90
4356;DHT22;64374;51.482;7.408;2022-11-23T15:16:38;12.90;99.90
4356;DHT22;64374;51.482;7.408;2022-11-23T15:19:27;13.00;99.90
4356;DHT22;64374;51.482;7.408;2022-11-23T15:21:56;13.00;99.90
4356;DHT22;64374;51.482;7.408;2022-11-23T15:24:26;13.30;99.90
4356;DHT22;64374;51.482;7.408;2022-11-23T15:27:01;13.30;99.90
4356;DHT22;64374;51.482;7.408;2022-11-23T15:29:38;13.10;99.90
4356;DHT22;64374;51.482;7.408;2022-11-23T15:32:20;13.20;99.90
4356;DHT22;64374;51.482;7.408;2022-11-23T15:35:09;13.10;99.90
4356;DHT22;64374;51.482;7.408;2022-11-23T15:37:42;13.10;99.90
4356;DHT22;64374;51.482;7.408;2022-11-23T15:40:14;13.10;99.90
4356;DHT22;64374;51.482;7.408;2022-11-23T15:42:46;12.90;99.90
4356;DHT22;64374;51.482;7.408;2022-11-23T15:45:35;12.70;99.90
4356;DHT22;64374;51.482;7.408;2022-11-23T15:48:08;12.40;99.90
4356;DHT22;64374;51.482;7.408;2022-11-23T15:50:46;12.20;99.90
4356;DHT22;64374;51.482;7.408;2022-11-23T15:53:18;11.80;99.90
4356;DHT22;64374;51.482;7.408;2022-11-23T15:55:52;11.80;99.90
4356;DHT22;64374;51.482;7.408;2022-11-23T15:58:25;11.40;99.90
4356;DHT22;64374;51.482;7.408;2022-11-23T16:01:02;11.20;99.90
4356;DHT22;64374;51.482;7.408;2022-11-23T16:03:40;11.30;99.90
4356;DHT22;64374;51.482;7.408;2022-11-23T16:06:22;11.40;99.90
4356;DHT22;64374;51.482;7.408;2022-11-23T16:08:54;11.20;99.90
4356;DHT22;64374;51.482;7.408;2022-11-23T16:11:30;11.30;99.90
4356;DHT22;64374;51.482;7.408;2022-11-23T16:14:26;11.40;99.90
4356;DHT22;64374;51.482;7.408;2022-11-23T16:17:00;11.40;99.90
4356;DHT22;64374;51.482;7.408;2022-11-23T16:19:46;11.00;99.90
4356;DHT22;64374;51.482;7.408;2022-11-23T16:22:24;11.10;99.90
4356;DHT22;64374;51.482;7.408;2022-11-23T16:25:01;11.10;99.90
4356;DHT22;64374;51.482;7.408;2022-11-23T16:27:33;11.00;99.90
4356;DHT22;64374;51.482;7.408;2022-11-23T16:30:04;11.00;99.90
4356;DHT22;64374;51.482;7.408;2022-11-23T16:32:32;10.90;99.90
4356;DHT22;64374;51.482;7.408;2022-11-23T16:35:14;10.90;99.90
4356;DHT22;64374;51.482;7.408;2022-11-23T16:37:51;11.00;99.90
4356;DHT22;64374;51.482;7.408;2022-11-23T16:40:19;11.30;99.90
4356;DHT22;64374;51.482;7.408;2022-11-23T16:42:51;11.10;99.90
4356;DHT22;64374;51.482;7.408;2022-11-23T16:45:20;10.90;99.90
4356;DHT22;64374;51.482;7.408;2022-11-23T16:47:52;11.00;99.90
4356;DHT22;64374;51.482;7.408;2022-11-23T16:50:21;10.90;99.90
4356;DHT22;64374;51.482;7.408;2022-11-23T16:52:50;11.00;99.90
4356;DHT22;64374;51.482;7.408;2022-11-23T16:55:19;11.00;99.90